Time;durP1;ratioP1;P1;durP2;ratioP2;P2;SDS_P1;SDS_P2;PMS_P1;PMS_P2;Temp;Humidity;BMP_temperature;BMP_pressure;BME280_temperature;BME280_humidity;BME280_pressure;Samples;Min_cycle;Max_cycle;Signal;HPM_P1;HPM_P2
2023/06/24 00:01:15;;;;;;;7.30;5.45;;;;;;;17.05;100.00;98198.22;5044254;28;20411;-71
2023/06/24 00:03:46;;;;;;;8.32;6.22;;;;;;;17.02;100.00;98196.88;5044666;28;20405;-70
2023/06/24 00:06:18;;;;;;;7.72;6.07;;;;;;;16.99;100.00;98202.75;5052108;28;20508;-70
2023/06/24 00:08:44;;;;;;;7.68;5.95;;;;;;;16.94;100.00;98208.13;5035825;28;20415;-71
2023/06/24 00:11:12;;;;;;;7.60;5.43;;;;;;;16.94;100.00;98211.59;5032664;28;20407;-71
2023/06/24 00:13:39;;;;;;;6.82;5.22;;;;;;;16.96;100.00;98206.78;5032719;28;20461;-71
2023/06/24 00:16:07;;;;;;;7.72;5.80;;;;;;;16.97;100.00;98200.38;5032306;28;20409;-70
2023/06/24 00:18:35;;;;;;;6.53;5.25;;;;;;;16.96;100.00;98206.00;5043260;28;20490;-70
2023/06/24 00:21:02;;;;;;;6.65;5.20;;;;;;;16.95;100.00;98207.06;5052535;28;20406;-70
2023/06/24 00:23:30;;;;;;;7.93;5.27;;;;;;;16.93;100.00;98199.31;5051834;28;20814;-70
2023/06/24 00:25:57;;;;;;;6.95;5.63;;;;;;;16.87;100.00;98210.28;5051932;28;20401;-70
2023/06/24 00:28:24;;;;;;;8.45;5.93;;;;;;;16.79;100.00;98205.50;5039290;28;20859;-70
2023/06/24 00:30:50;;;;;;;7.60;5.82;;;;;;;16.75;100.00;98207.13;5038722;28;20421;-70
2023/06/24 00:33:19;;;;;;;8.03;6.10;;;;;;;16.69;100.00;98198.28;5051915;28;20409;-70
2023/06/24 00:35:46;;;;;;;7.57;6.20;;;;;;;16.66;100.00;98200.72;5051333;28;20508;-70
2023/06/24 00:38:12;;;;;;;7.43;5.47;;;;;;;16.63;100.00;98196.69;5040175;28;20446;-70
2023/06/24 00:40:38;;;;;;;5.57;4.93;;;;;;;16.61;100.00;98198.84;5042706;28;20510;-70
2023/06/24 00:43:06;;;;;;;9.10;6.00;;;;;;;16.63;100.00;98196.69;5051365;28;20409;-70
2023/06/24 00:45:32;;;;;;;7.45;5.95;;;;;;;16.57;100.00;98200.41;5049911;28;20413;-70
2023/06/24 00:47:59;;;;;;;7.10;5.90;;;;;;;16.54;100.00;98200.94;5051938;28;20408;-70
2023/06/24 00:50:28;;;;;;;9.95;6.10;;;;;;;16.51;100.00;98198.81;5049558;28;20421;-70
2023/06/24 00:52:54;;;;;;;8.30;6.00;;;;;;;16.46;100.00;98196.16;5038543;28;20443;-70
2023/06/24 00:55:22;;;;;;;8.30;6.55;;;;;;;16.44;100.00;98200.97;5030747;28;22706;-70
2023/06/24 00:57:51;;;;;;;7.82;5.93;;;;;;;16.42;100.00;98197.75;5031126;28;20419;-70
2023/06/24 01:00:19;;;;;;;9.00;5.73;;;;;;;16.40;100.00;98205.22;5037179;28;20401;-70
2023/06/24 01:02:48;;;;;;;7.65;6.20;;;;;;;16.39;100.00;98201.75;5041184;28;20485;-69
2023/06/24 01:05:15;;;;;;;7.97;5.72;;;;;;;16.40;100.00;98206.03;5032601;28;20431;-69
2023/06/24 01:07:43;;;;;;;7.95;6.32;;;;;;;16.42;100.00;98208.44;5046845;28;20412;-69
2023/06/24 01:10:12;;;;;;;8.15;6.20;;;;;;;16.40;100.00;98203.38;5036584;28;20492;-70
2023/06/24 01:12:39;;;;;;;8.63;6.10;;;;;;;16.39;100.00;98204.44;5051278;28;20822;-70
2023/06/24 01:15:08;;;;;;;7.60;5.75;;;;;;;16.36;100.00;98199.66;5050705;28;20771;-70
2023/06/24 01:17:39;;;;;;;8.40;6.30;;;;;;;16.31;100.00;98202.31;5051033;28;20413;-70
2023/06/24 01:20:11;;;;;;;7.70;6.40;;;;;;;16.25;100.00;98195.34;5057968;28;20483;-70
2023/06/24 01:23:06;;;;;;;8.65;6.72;;;;;;;16.22;100.00;98202.06;5031295;28;20411;-70
2023/06/24 01:25:52;;;;;;;7.88;6.30;;;;;;;16.19;100.00;98196.44;5039226;28;20409;-69
2023/06/24 01:28:33;;;;;;;8.77;6.30;;;;;;;16.17;100.00;98195.88;5047566;28;20403;-70
2023/06/24 01:31:30;;;;;;;7.32;6.13;;;;;;;16.13;100.00;98194.84;5040022;28;20950;-70
2023/06/24 01:34:03;;;;;;;7.22;6.03;;;;;;;16.08;100.00;98202.84;5049362;28;20409;-70
2023/06/24 01:36:31;;;;;;;8.50;6.53;;;;;;;16.05;100.00;98198.84;5049063;28;20499;-70
2023/06/24 01:39:03;;;;;;;8.18;6.80;;;;;;;16.02;100.00;98199.34;5041262;28;20423;-70
2023/06/24 01:41:34;;;;;;;8.73;6.85;;;;;;;16.02;100.00;98190.53;5031030;28;20411;-70
2023/06/24 01:44:01;;;;;;;8.63;6.63;;;;;;;16.02;100.00;98191.34;5031622;28;20456;-70
2023/06/24 01:46:31;;;;;;;8.13;6.32;;;;;;;16.00;100.00;98195.38;5030815;28;20411;-70
2023/06/24 01:49:03;;;;;;;9.80;6.97;;;;;;;15.99;100.00;98197.22;5038521;28;20414;-70
2023/06/24 01:51:32;;;;;;;8.55;6.97;;;;;;;15.93;100.00;98194.81;5049943;28;20413;-70
2023/06/24 01:54:02;;;;;;;10.13;7.07;;;;;;;15.88;100.00;98199.06;5050156;28;20440;-70
2023/06/24 01:56:30;;;;;;;8.55;6.78;;;;;;;15.83;100.00;98190.25;5034164;28;20421;-70
2023/06/24 01:59:00;;;;;;;10.50;8.13;;;;;;;15.82;100.00;98186.78;5042858;28;20446;-70
2023/06/24 02:01:29;;;;;;;10.25;7.57;;;;;;;15.80;100.00;98188.13;5043163;28;20448;-70
2023/06/24 02:03:57;;;;;;;8.38;6.97;;;;;;;15.78;100.00;98187.59;5033652;28;20982;-70
2023/06/24 02:06:26;;;;;;;10.73;8.18;;;;;;;15.81;100.00;98182.50;5030349;28;20461;-71
2023/06/24 02:08:55;;;;;;;10.32;7.78;;;;;;;15.78;100.00;98177.72;5035715;28;20907;-70
2023/06/24 02:11:23;;;;;;;12.35;7.68;;;;;;;15.77;100.00;98180.66;5050398;28;20405;-70
2023/06/24 02:13:53;;;;;;;10.65;8.00;;;;;;;15.77;100.00;98191.34;5050345;28;20409;-70
2023/06/24 02:16:22;;;;;;;12.10;8.57;;;;;;;15.76;100.00;98179.84;5048307;28;20470;-70
2023/06/24 02:18:50;;;;;;;11.98;8.40;;;;;;;15.78;100.00;98183.06;5044710;28;20441;-70
2023/06/24 02:21:18;;;;;;;9.48;7.68;;;;;;;15.74;100.00;98175.81;5034455;28;20401;-70
2023/06/24 02:23:46;;;;;;;10.63;7.97;;;;;;;15.73;100.00;98177.69;5050585;28;20401;-70
2023/06/24 02:26:12;;;;;;;10.35;8.10;;;;;;;15.71;100.00;98173.72;5049664;28;20794;-70
2023/06/24 02:28:40;;;;;;;10.93;8.82;;;;;;;15.74;100.00;98168.63;5047990;28;20409;-71
2023/06/24 02:31:08;;;;;;;10.55;8.30;;;;;;;15.74;100.00;98167.81;5044759;28;20464;-71
2023/06/24 02:33:35;;;;;;;10.07;7.45;;;;;;;15.74;100.00;98167.81;5030417;28;20441;-71
2023/06/24 02:36:03;;;;;;;9.90;7.75;;;;;;;15.73;100.00;98169.69;5030141;28;20473;-71
2023/06/24 02:38:29;;;;;;;9.13;7.13;;;;;;;15.71;100.00;98166.47;5032661;28;20504;-71
2023/06/24 02:40:56;;;;;;;11.15;7.70;;;;;;;15.71;100.00;98163.81;5050154;28;20871;-71
2023/06/24 02:43:22;;;;;;;9.27;7.68;;;;;;;15.70;100.00;98161.41;5049623;28;20462;-71
2023/06/24 02:45:50;;;;;;;11.98;8.38;;;;;;;15.68;100.00;98163.53;5048146;28;20444;-71
2023/06/24 02:48:18;;;;;;;12.17;8.20;;;;;;;15.67;100.00;98161.94;5049348;28;20492;-71
2023/06/24 02:50:46;;;;;;;10.02;7.70;;;;;;;15.65;100.00;98169.41;5049441;28;20960;-71
2023/06/24 02:53:14;;;;;;;10.20;8.05;;;;;;;15.65;100.00;98172.88;5050125;28;20409;-71
2023/06/24 02:55:42;;;;;;;10.40;7.97;;;;;;;15.65;100.00;98167.53;5049296;28;20417;-71
2023/06/24 02:58:09;;;;;;;11.67;8.27;;;;;;;15.67;100.00;98172.63;5050006;28;20464;-71
2023/06/24 03:00:37;;;;;;;11.68;7.50;;;;;;;15.63;100.00;98167.03;5030558;28;20482;-71
2023/06/24 03:03:05;;;;;;;10.55;7.82;;;;;;;15.60;100.00;98167.53;5032648;28;20796;-71
2023/06/24 03:05:34;;;;;;;9.55;7.13;;;;;;;15.58;100.00;98174.19;5033676;28;20492;-71
2023/06/24 03:08:03;;;;;;;9.95;8.02;;;;;;;15.53;100.00;98172.31;5033675;28;20950;-71
2023/06/24 03:10:31;;;;;;;11.45;7.93;;;;;;;15.50;100.00;98183.47;5051811;28;20413;-71
2023/06/24 03:12:57;;;;;;;9.00;7.43;;;;;;;15.48;100.00;98172.28;5053594;28;20440;-70
2023/06/24 03:15:23;;;;;;;13.48;7.90;;;;;;;15.48;100.00;98183.78;5053473;28;20397;-71
2023/06/24 03:17:51;;;;;;;12.30;8.60;;;;;;;15.49;100.00;98185.34;5053726;28;20754;-71
2023/06/24 03:20:18;;;;;;;12.00;8.35;;;;;;;15.44;100.00;98172.00;5040383;28;20447;-71
2023/06/24 03:22:44;;;;;;;10.95;8.32;;;;;;;15.40;100.00;98180.81;5049217;28;20894;-71
2023/06/24 03:25:10;;;;;;;9.97;7.60;;;;;;;15.38;100.00;98181.06;5052425;28;20417;-71
2023/06/24 03:27:38;;;;;;;10.65;8.00;;;;;;;15.38;100.00;98185.59;5053154;28;20400;-71
2023/06/24 03:30:06;;;;;;;10.15;7.63;;;;;;;15.36;100.00;98183.19;5037767;28;20469;-71
2023/06/24 03:32:36;;;;;;;10.70;7.40;;;;;;;15.38;100.00;98185.59;5033390;28;20407;-71
2023/06/24 03:35:02;;;;;;;10.40;7.78;;;;;;;15.37;100.00;98186.66;5033352;28;20399;-71
2023/06/24 03:37:28;;;;;;;11.38;8.43;;;;;;;15.37;100.00;98202.66;5033070;28;20974;-71
2023/06/24 03:39:56;;;;;;;8.43;7.13;;;;;;;15.37;100.00;98208.78;5044460;28;20417;-71
2023/06/24 03:42:22;;;;;;;9.55;7.82;;;;;;;15.38;100.00;98209.59;5052879;28;20405;-71
2023/06/24 03:44:49;;;;;;;10.95;7.70;;;;;;;15.40;100.00;98205.63;5052221;28;20956;-71
2023/06/24 03:47:16;;;;;;;9.30;7.50;;;;;;;15.41;100.00;98209.88;5052497;28;20999;-71
2023/06/24 03:49:42;;;;;;;10.40;7.83;;;;;;;15.43;100.00;98220.28;5043521;28;20463;-71
2023/06/24 03:52:08;;;;;;;10.32;8.02;;;;;;;15.44;100.00;98216.56;5033156;28;20411;-71
2023/06/24 03:54:35;;;;;;;11.25;8.02;;;;;;;15.44;100.00;98220.03;5041447;28;20413;-71
2023/06/24 03:57:01;;;;;;;10.68;8.05;;;;;;;15.46;100.00;98217.09;5032729;28;20429;-71
2023/06/24 03:59:27;;;;;;;10.55;7.85;;;;;;;15.46;100.00;98212.56;5034103;28;20407;-69
2023/06/24 04:01:55;;;;;;;10.30;8.23;;;;;;;15.48;100.00;98223.78;5032845;28;20506;-71
2023/06/24 04:04:23;;;;;;;11.15;8.20;;;;;;;15.52;100.00;98220.59;5040329;28;20413;-72
2023/06/24 04:06:49;;;;;;;9.38;7.68;;;;;;;15.53;100.00;98227.53;5052471;28;20771;-70
2023/06/24 04:09:15;;;;;;;11.05;7.95;;;;;;;15.55;100.00;98236.13;5051371;28;20413;-70
2023/06/24 04:11:41;;;;;;;12.38;8.85;;;;;;;15.60;100.00;98234.25;5048005;28;20785;-71
2023/06/24 04:14:09;;;;;;;11.07;8.52;;;;;;;15.62;100.00;98237.47;5032255;28;20442;-71
2023/06/24 04:16:35;;;;;;;11.88;8.23;;;;;;;15.66;100.00;98235.88;5032324;28;20422;-70
2023/06/24 04:19:03;;;;;;;11.40;7.80;;;;;;;15.70;100.00;98238.84;5032566;28;20409;-70
2023/06/24 04:21:29;;;;;;;10.10;7.80;;;;;;;15.75;100.00;98238.84;5050082;28;20921;-70
2023/06/24 04:23:55;;;;;;;9.27;7.25;;;;;;;15.79;100.00;98245.25;5037694;28;20500;-70
2023/06/24 04:26:21;;;;;;;10.02;7.57;;;;;;;15.84;100.00;98251.41;5048802;28;20838;-70
2023/06/24 04:28:48;;;;;;;8.97;6.87;;;;;;;15.88;100.00;98246.34;5046995;28;20405;-70
2023/06/24 04:31:14;;;;;;;9.77;7.50;;;;;;;15.92;100.00;98244.75;5032148;28;20769;-70
2023/06/24 04:33:40;;;;;;;13.35;9.80;;;;;;;16.01;100.00;98242.38;5032300;28;20881;-71
2023/06/24 04:36:08;;;;;;;12.15;9.52;;;;;;;16.07;100.00;98249.31;5031863;28;20435;-70
2023/06/24 04:38:34;;;;;;;9.73;8.20;;;;;;;16.14;100.00;98247.19;5038368;28;20431;-70
2023/06/24 04:41:00;;;;;;;10.25;8.10;;;;;;;16.21;100.00;98243.19;5052060;28;20413;-71
2023/06/24 04:43:29;;;;;;;11.63;8.30;;;;;;;16.27;100.00;98247.47;5050530;28;20907;-70
2023/06/24 04:45:56;;;;;;;11.00;8.00;;;;;;;16.34;100.00;98251.75;5043465;28;20817;-70
2023/06/24 04:48:24;;;;;;;11.80;8.80;;;;;;;16.41;100.00;98253.06;5031724;28;20946;-70
2023/06/24 04:50:50;;;;;;;10.98;8.65;;;;;;;16.47;100.00;98248.53;5031803;28;20920;-70
2023/06/24 04:53:18;;;;;;;12.55;8.50;;;;;;;16.54;100.00;98249.06;5032169;28;20765;-70
2023/06/24 04:55:44;;;;;;;10.77;7.80;;;;;;;16.60;100.00;98251.50;5032665;28;20449;-70
2023/06/24 04:58:10;;;;;;;8.68;7.07;;;;;;;16.66;100.00;98252.31;5031527;28;20415;-70
2023/06/24 05:00:37;;;;;;;11.88;8.10;;;;;;;16.74;100.00;98248.28;5031747;28;20419;-70
2023/06/24 05:03:03;;;;;;;11.27;7.85;;;;;;;16.80;100.00;98250.69;5031583;28;20472;-70
2023/06/24 05:05:29;;;;;;;10.10;7.32;;;;;;;16.89;100.00;98250.94;5031050;28;20480;-70
2023/06/24 05:07:56;;;;;;;9.32;7.00;;;;;;;16.95;100.00;98253.31;5050254;28;20409;-70
2023/06/24 05:10:23;;;;;;;14.30;10.43;;;;;;;16.90;100.00;98256.03;5049781;28;20412;-70
2023/06/24 05:12:49;;;;;;;13.57;9.70;;;;;;;17.01;100.00;98254.91;5050783;28;20417;-70
2023/06/24 05:15:16;;;;;;;10.98;8.73;;;;;;;17.07;100.00;98262.91;5042016;28;20411;-74
2023/06/24 05:17:43;;;;;;;14.65;9.02;;;;;;;17.01;100.00;98254.91;5038994;28;20505;-70
2023/06/24 05:20:10;;;;;;;10.63;8.00;;;;;;;17.06;100.00;98259.47;5042166;28;20904;-71
2023/06/24 05:22:36;;;;;;;10.67;7.00;;;;;;;16.99;100.00;98266.94;5041696;28;20423;-71
2023/06/24 05:25:03;;;;;;;10.30;7.20;;;;;;;16.97;100.00;98258.41;5038282;28;20750;-70
2023/06/24 05:27:30;;;;;;;9.90;7.90;;;;;;;17.01;100.00;98259.47;5038586;28;20413;-70
2023/06/24 05:29:57;;;;;;;9.23;7.25;;;;;;;17.15;100.00;98263.16;5041374;28;20502;-70
2023/06/24 05:32:23;;;;;;;11.93;6.85;;;;;;;17.08;100.00;98265.31;5039366;28;20939;-70
2023/06/24 05:34:49;;;;;;;13.48;7.60;;;;;;;17.19;100.00;98268.78;5040531;28;20407;-70
2023/06/24 05:37:15;;;;;;;10.15;7.38;;;;;;;17.26;100.00;98269.31;5038804;28;20415;-70
2023/06/24 05:39:41;;;;;;;10.50;7.30;;;;;;;17.44;100.00;98263.38;5035913;28;20487;-71
2023/06/24 05:42:08;;;;;;;11.77;6.85;;;;;;;17.38;100.00;98259.09;5046108;28;20839;-70
2023/06/24 05:44:35;;;;;;;9.73;7.32;;;;;;;17.52;100.00;98261.97;5042080;28;20500;-70
2023/06/24 05:47:02;;;;;;;8.88;6.45;;;;;;;17.59;100.00;98259.81;5038388;28;20417;-70
2023/06/24 05:49:28;;;;;;;8.60;6.28;;;;;;;17.60;100.00;98264.09;5048106;28;20763;-69
2023/06/24 05:51:55;;;;;;;7.73;6.00;;;;;;;17.60;100.00;98264.88;5047022;28;20968;-70
2023/06/24 05:54:22;;;;;;;7.97;6.53;;;;;;;17.66;100.00;98266.53;5036730;28;20409;-74
2023/06/24 05:56:48;;;;;;;10.25;6.38;;;;;;;17.84;100.00;98270.44;5043435;28;20423;-70
2023/06/24 05:59:14;;;;;;;8.68;6.07;;;;;;;17.83;100.00;98268.03;5045194;28;20399;-70
2023/06/24 06:01:42;;;;;;;7.45;5.57;;;;;;;17.97;100.00;98267.13;5041338;28;20405;-70
2023/06/24 06:04:08;;;;;;;8.05;5.63;;;;;;;17.95;100.00;98268.50;5045814;28;20409;-70
2023/06/24 06:06:34;;;;;;;9.30;6.05;;;;;;;18.16;100.00;98268.09;5037748;28;20919;-70
2023/06/24 06:09:00;;;;;;;8.25;5.88;;;;;;;18.09;100.00;98272.97;5049953;28;20417;-70
2023/06/24 06:11:27;;;;;;;8.27;5.70;;;;;;;17.99;100.00;98267.66;5042943;28;20422;-71
2023/06/24 06:13:53;;;;;;;10.98;6.20;;;;;;;17.92;100.00;98275.22;5041056;28;20448;-70
2023/06/24 06:16:19;;;;;;;11.43;6.07;;;;;;;17.86;100.00;98272.84;5048221;28;20405;-70
2023/06/24 06:18:47;;;;;;;7.40;5.80;;;;;;;18.02;100.00;98269.00;5044398;28;20456;-70
2023/06/24 06:21:13;;;;;;;7.63;5.20;;;;;;;18.14;100.00;98266.75;5031617;28;20446;-70
2023/06/24 06:23:39;;;;;;;8.20;6.03;;;;;;;18.13;100.00;98267.84;5032635;28;20447;-71
2023/06/24 06:26:06;;;;;;;9.00;5.45;;;;;;;18.12;100.00;98264.34;5036015;28;20437;-71
2023/06/24 06:28:32;;;;;;;8.35;5.72;;;;;;;18.18;100.00;98257.09;5041460;28;20417;-73
2023/06/24 06:30:58;;;;;;;5.75;4.78;;;;;;;18.25;100.00;98262.94;5037350;28;20410;-72
2023/06/24 06:33:24;;;;;;;5.57;4.60;;;;;;;18.34;100.00;98257.81;5040771;28;20894;-70
2023/06/24 06:35:52;;;;;;;6.80;4.90;;;;;;;18.42;100.00;98262.53;5030926;28;20421;-71
2023/06/24 06:38:20;;;;;;;6.53;5.03;;;;;;;18.49;100.00;98263.03;5035574;28;20497;-71
2023/06/24 06:40:47;;;;;;;5.47;4.32;;;;;;;18.54;100.00;98261.13;5047777;28;22059;-71
2023/06/24 06:43:13;;;;;;;8.07;5.30;;;;;;;18.77;100.00;98251.56;5034587;28;20410;-69
2023/06/24 06:45:40;;;;;;;7.13;5.20;;;;;;;18.82;100.00;98251.50;5034358;28;20488;-72
2023/06/24 06:48:07;;;;;;;7.80;5.20;;;;;;;18.76;100.00;98251.84;5035916;28;20411;-72
2023/06/24 06:50:34;;;;;;;6.47;4.93;;;;;;;18.87;100.00;98253.31;5042951;28;20431;-73
2023/06/24 06:53:01;;;;;;;7.30;4.95;;;;;;;18.91;100.00;98251.69;5049334;28;20403;-71
2023/06/24 06:55:28;;;;;;;6.37;4.30;;;;;;;18.88;100.00;98253.03;5034158;28;20785;-72
2023/06/24 06:57:55;;;;;;;6.90;4.15;;;;;;;18.92;100.00;98247.94;5038106;28;20420;-71
2023/06/24 07:00:21;;;;;;;5.43;4.10;;;;;;;18.95;100.00;98244.66;5053285;28;20496;-70
2023/06/24 07:02:47;;;;;;;5.60;4.50;;;;;;;18.92;100.00;98240.69;5035818;28;20423;-71
2023/06/24 07:05:14;;;;;;;4.55;3.70;;;;;;;18.98;100.00;98246.78;5040110;28;20471;-70
2023/06/24 07:07:40;;;;;;;4.97;3.97;;;;;;;18.94;100.00;98243.84;5052818;28;20409;-71
2023/06/24 07:10:09;;;;;;;7.13;4.68;;;;;;;18.91;100.00;98249.81;5059234;28;20455;-72
2023/06/24 07:12:36;;;;;;;6.32;4.30;;;;;;;18.86;100.00;98241.03;5037384;28;20415;-72
2023/06/24 07:15:02;;;;;;;7.93;4.05;;;;;;;18.88;100.00;98254.94;5049174;28;20429;-71
2023/06/24 07:17:28;;;;;;;5.35;4.10;;;;;;;18.94;100.00;98246.53;5034720;28;20418;-71
2023/06/24 07:19:55;;;;;;;4.35;3.78;;;;;;;19.04;100.00;98255.56;5043303;28;20800;-70
2023/06/24 07:22:21;;;;;;;5.82;4.05;;;;;;;19.07;100.00;98258.50;5033808;28;20409;-72
2023/06/24 07:24:47;;;;;;;6.43;4.20;;;;;;;19.07;100.00;98253.13;5044483;28;20875;-72
2023/06/24 07:27:16;;;;;;;5.95;4.13;;;;;;;19.16;100.00;98256.00;5036085;28;20399;-71
2023/06/24 07:29:42;;;;;;;8.25;4.32;;;;;;;19.11;100.00;98248.00;5050758;28;20451;-71
2023/06/24 07:32:09;;;;;;;5.72;4.15;;;;;;;19.13;100.00;98253.88;5051405;28;20428;-71
2023/06/24 07:34:35;;;;;;;6.40;4.22;;;;;;;19.19;100.00;98250.84;5052610;28;20504;-71
2023/06/24 07:37:01;;;;;;;10.27;4.22;;;;;;;19.21;100.00;98247.88;5051454;28;20463;-71
2023/06/24 07:39:27;;;;;;;4.65;3.40;;;;;;;19.37;100.00;98245.84;5038146;28;20407;-71
2023/06/24 07:41:53;;;;;;;4.32;3.50;;;;;;;19.47;100.00;98245.75;5033222;28;20840;-71
2023/06/24 07:44:21;;;;;;;6.78;4.13;;;;;;;19.64;100.00;98249.53;5047013;28;20413;-71
2023/06/24 07:46:48;;;;;;;6.07;3.88;;;;;;;19.59;100.00;98254.97;5053016;28;20489;-71
2023/06/24 07:49:14;;;;;;;6.03;4.22;;;;;;;19.64;100.00;98249.53;5050670;28;20962;-71
2023/06/24 07:51:40;;;;;;;6.32;4.57;;;;;;;19.71;100.00;98254.56;5052188;28;20909;-71
2023/06/24 07:54:07;;;;;;;6.55;4.55;;;;;;;19.59;100.00;98248.81;5040799;28;20417;-71
2023/06/24 07:56:33;;;;;;;5.65;3.67;;;;;;;19.66;100.00;98244.69;5042355;28;20405;-71
2023/06/24 07:58:59;;;;;;;5.57;3.90;;;;;;;19.74;100.00;98248.63;5036142;28;20473;-71
2023/06/24 08:01:27;;;;;;;6.57;4.55;;;;;;;19.74;100.00;98251.31;5046599;28;20437;-70
2023/06/24 08:03:53;;;;;;;7.60;4.17;;;;;;;19.78;100.00;98243.44;5050160;28;20409;-70
2023/06/24 08:06:20;;;;;;;6.20;4.18;;;;;;;19.90;100.00;98243.84;5049728;28;20417;-71
2023/06/24 08:08:46;;;;;;;5.93;4.07;;;;;;;19.92;100.00;98245.13;5041552;28;20411;-70
2023/06/24 08:11:13;;;;;;;7.63;4.60;;;;;;;20.21;100.00;98246.88;5030695;28;20490;-70
2023/06/24 08:13:39;;;;;;;6.67;4.27;;;;;;;20.38;100.00;98242.59;5031487;28;20411;-72
2023/06/24 08:16:06;;;;;;;6.57;4.18;;;;;;;20.34;100.00;98252.34;5047613;28;20932;-72
2023/06/24 08:18:33;;;;;;;6.15;3.92;;;;;;;20.36;100.00;98244.78;5034603;28;20419;-72
2023/06/24 08:20:59;;;;;;;7.22;4.80;;;;;;;20.40;100.00;98239.59;5052083;28;20404;-72
2023/06/24 08:23:26;;;;;;;4.78;3.78;;;;;;;20.37;100.00;98235.59;5051886;28;20409;-72
2023/06/24 08:25:52;;;;;;;4.27;3.40;;;;;;;20.47;100.00;98235.44;5050397;28;20420;-71
2023/06/24 08:28:18;;;;;;;5.88;4.20;;;;;;;20.46;100.00;98238.44;5050135;28;20428;-71
2023/06/24 08:30:44;;;;;;;6.35;4.10;;;;;;;20.51;100.00;98234.88;5052189;28;20409;-71
2023/06/24 08:33:10;;;;;;;5.68;4.05;;;;;;;20.55;100.00;98235.88;5034748;28;20425;-71
2023/06/24 08:35:38;;;;;;;4.78;3.88;;;;;;;20.75;100.00;98230.16;5031977;28;20525;-71
2023/06/24 08:38:04;;;;;;;6.43;4.03;;;;;;;20.86;98.47;98231.56;5043767;28;20432;-71
2023/06/24 08:40:31;;;;;;;7.82;4.20;;;;;;;20.75;96.34;98230.94;5032060;28;20415;-71
2023/06/24 08:42:58;;;;;;;5.32;3.78;;;;;;;20.82;100.00;98231.34;5047376;28;20426;-71
2023/06/24 08:45:27;;;;;;;5.07;3.67;;;;;;;21.01;100.00;98219.72;5051437;28;20413;-71
2023/06/24 08:47:55;;;;;;;6.72;4.32;;;;;;;20.96;99.56;98219.81;5049665;28;20463;-71
2023/06/24 08:50:27;;;;;;;5.00;3.75;;;;;;;21.09;100.00;98232.47;5050567;28;20406;-71
2023/06/24 08:52:55;;;;;;;6.40;4.03;;;;;;;21.11;100.00;98231.09;5040894;28;20442;-71
2023/06/24 08:55:24;;;;;;;4.57;3.50;;;;;;;21.17;100.00;98224.53;5031486;28;20422;-71
2023/06/24 08:57:51;;;;;;;5.60;3.58;;;;;;;21.23;100.00;98230.63;5032084;28;20469;-71
2023/06/24 09:00:19;;;;;;;4.47;3.42;;;;;;;21.45;100.00;98228.00;5031067;28;20414;-71
2023/06/24 09:02:46;;;;;;;4.75;3.13;;;;;;;21.51;100.00;98228.69;5050058;28;20409;-71
2023/06/24 09:05:12;;;;;;;5.15;3.50;;;;;;;21.49;100.00;98225.53;5051570;28;20444;-71
2023/06/24 09:07:38;;;;;;;6.40;4.05;;;;;;;21.92;88.45;98228.63;5041176;28;20418;-71
2023/06/24 09:10:08;;;;;;;7.22;4.00;;;;;;;21.73;79.86;98222.56;5031761;28;20410;-70
2023/06/24 09:12:36;;;;;;;4.38;3.30;;;;;;;21.73;96.16;98228.75;5035811;28;20407;-71
2023/06/24 09:15:04;;;;;;;5.50;3.00;;;;;;;21.78;100.00;98223.28;5031350;28;20853;-71
2023/06/24 09:17:30;;;;;;;4.68;3.30;;;;;;;21.85;100.00;98220.97;5032314;28;20414;-71
2023/06/24 09:20:05;;;;;;;5.35;3.35;;;;;;;21.93;100.00;98219.44;5032738;28;20422;-71
2023/06/24 09:22:31;;;;;;;5.43;3.75;;;;;;;21.97;100.00;98223.94;5042096;28;20411;-71
2023/06/24 09:25:02;;;;;;;6.60;3.95;;;;;;;22.12;100.00;98225.50;5031305;28;20411;-71
2023/06/24 09:27:31;;;;;;;6.15;4.10;;;;;;;22.26;100.00;98210.06;5049331;28;20407;-71
2023/06/24 09:29:58;;;;;;;5.30;4.25;;;;;;;22.44;95.16;98205.56;5032249;28;20430;-70
2023/06/24 09:32:29;;;;;;;4.68;3.50;;;;;;;22.64;100.00;98205.06;5038683;28;20483;-70
2023/06/24 09:34:55;;;;;;;4.88;3.60;;;;;;;22.64;100.00;98194.25;5050776;28;20550;-71
2023/06/24 09:37:26;;;;;;;4.63;3.60;;;;;;;22.64;100.00;98196.16;5050605;28;20428;-71
2023/06/24 09:39:54;;;;;;;3.88;3.05;;;;;;;22.68;100.00;98194.44;5050581;28;20787;-70
2023/06/24 09:42:22;;;;;;;3.38;2.72;;;;;;;22.68;100.00;98189.84;5043887;28;20422;-70
2023/06/24 09:44:54;;;;;;;3.22;2.75;;;;;;;22.56;100.00;98186.09;5031012;28;20762;-71
2023/06/24 09:47:24;;;;;;;3.38;2.75;;;;;;;22.59;100.00;98180.09;5030775;28;20425;-70
2023/06/24 09:49:51;;;;;;;4.82;3.05;;;;;;;22.61;100.00;98183.31;5036515;28;20449;-71
2023/06/24 09:52:19;;;;;;;3.30;3.00;;;;;;;22.71;100.00;98180.31;5040313;28;20745;-71
2023/06/24 09:54:50;;;;;;;3.50;2.95;;;;;;;22.80;100.00;98188.50;5031749;28;20412;-71
2023/06/24 09:57:21;;;;;;;3.15;2.53;;;;;;;23.03;100.00;98173.81;5030609;28;20417;-72
2023/06/24 09:59:48;;;;;;;3.38;2.70;;;;;;;23.17;100.00;98174.50;5040784;28;20405;-71
2023/06/24 10:02:17;;;;;;;3.60;3.00;;;;;;;23.34;100.00;98182.66;5048688;28;20428;-70
2023/06/24 10:04:45;;;;;;;4.22;3.22;;;;;;;23.52;100.00;98172.72;5044367;28;20923;-71
2023/06/24 10:07:12;;;;;;;3.58;3.20;;;;;;;23.65;100.00;98170.97;5037593;28;20414;-70
2023/06/24 10:09:39;;;;;;;5.75;3.70;;;;;;;23.52;95.91;98167.31;5030265;28;20421;-71
2023/06/24 10:12:06;;;;;;;4.30;3.17;;;;;;;23.62;100.00;98164.28;5030865;28;20399;-71
2023/06/24 10:14:32;;;;;;;4.05;3.47;;;;;;;23.62;100.00;98169.69;5032057;28;20421;-71
2023/06/24 10:17:02;;;;;;;5.03;3.88;;;;;;;23.48;87.81;98169.84;5050289;28;20902;-71
2023/06/24 10:19:37;;;;;;;6.50;3.50;;;;;;;23.57;89.23;98163.66;5064093;28;20426;-72
2023/06/24 10:22:07;;;;;;;3.77;3.17;;;;;;;23.74;100.00;98160.97;5032213;28;20461;-71
2023/06/24 10:24:34;;;;;;;3.57;2.80;;;;;;;23.90;100.00;98172.91;5032881;28;20407;-72
2023/06/24 10:27:05;;;;;;;4.38;3.00;;;;;;;23.99;100.00;98157.44;5048459;28;20813;-72
2023/06/24 10:29:32;;;;;;;3.17;2.72;;;;;;;24.07;100.00;98151.25;5031306;28;20409;-72
2023/06/24 10:32:05;;;;;;;4.10;3.17;;;;;;;24.15;100.00;98157.75;5029977;28;20445;-73
2023/06/24 10:34:38;;;;;;;3.47;2.83;;;;;;;24.10;98.74;98147.09;5030176;28;20419;-73
2023/06/24 10:37:08;;;;;;;5.10;3.05;;;;;;;24.16;100.00;98146.63;5049455;28;20413;-73
2023/06/24 10:39:53;;;;;;;2.97;2.42;;;;;;;24.34;100.00;98144.72;5049955;28;20783;-73
2023/06/24 10:42:37;;;;;;;2.80;2.50;;;;;;;24.43;100.00;98144.69;5049550;28;20405;-73
2023/06/24 10:45:18;;;;;;;3.33;2.55;;;;;;;24.40;95.92;98139.91;5047741;28;20506;-73
2023/06/24 10:47:46;;;;;;;3.28;2.42;;;;;;;24.54;100.00;98129.69;5049962;28;20783;-72
2023/06/24 10:50:15;;;;;;;3.38;2.80;;;;;;;24.67;100.00;98134.09;5041849;28;20449;-72
2023/06/24 10:52:42;;;;;;;3.05;2.70;;;;;;;24.88;100.00;98136.88;5035721;28;20751;-72
2023/06/24 10:55:12;;;;;;;4.68;3.72;;;;;;;24.76;84.58;98126.72;5045028;28;20816;-72
2023/06/24 10:57:39;;;;;;;5.07;3.33;;;;;;;24.96;78.32;98130.66;5045181;28;20546;-73
2023/06/24 11:00:07;;;;;;;5.30;3.80;;;;;;;24.88;82.48;98128.75;5041168;28;20409;-72
2023/06/24 11:02:34;;;;;;;5.60;3.92;;;;;;;24.82;84.00;98120.00;5049585;28;20531;-73
2023/06/24 11:05:01;;;;;;;6.87;3.83;;;;;;;24.71;76.75;98113.38;5042062;28;20464;-72
2023/06/24 11:07:31;;;;;;;3.63;3.17;;;;;;;24.86;69.19;98115.53;5029915;28;20401;-72
2023/06/24 11:10:01;;;;;;;4.28;3.10;;;;;;;24.70;76.73;98109.09;5029958;28;20908;-73
2023/06/24 11:12:29;;;;;;;4.00;2.67;;;;;;;24.77;81.33;98106.66;5045216;28;20425;-72
2023/06/24 11:14:57;;;;;;;2.92;2.50;;;;;;;24.82;90.78;98109.19;5030981;28;20778;-72
2023/06/24 11:17:24;;;;;;;4.15;2.80;;;;;;;24.66;77.21;98105.41;5029731;28;20418;-72
2023/06/24 11:19:52;;;;;;;4.45;3.00;;;;;;;24.44;74.57;98105.66;5031144;28;20912;-71
2023/06/24 11:22:18;;;;;;;7.00;3.00;;;;;;;24.52;81.68;98102.94;5049759;28;20444;-72
2023/06/24 11:24:46;;;;;;;3.25;2.67;;;;;;;24.75;90.03;98098.06;5045621;28;20512;-71
2023/06/24 11:27:12;;;;;;;3.67;2.60;;;;;;;24.88;95.51;98102.47;5052897;28;20413;-72